Time;durP1;ratioP1;P1;durP2;ratioP2;P2;SDS_P1;SDS_P2;PMS_P1;PMS_P2;Temp;Humidity;BMP_temperature;BMP_pressure;BME280_temperature;BME280_humidity;BME280_pressure;Samples;Min_cycle;Max_cycle;Signal;HPM_P1;HPM_P2
2022/04/12 00:00:31;;;;;;;;;;;2.30;99.90;;;;;;2621982;46;20692;31
2022/04/12 00:03:06;;;;;;;;;;;2.30;99.90;;;;;;2720045;39;20405;31
2022/04/12 00:05:41;;;;;;;;;;;2.30;99.90;;;;;;2603058;54;20681;31
2022/04/12 00:08:18;;;;;;;;;;;2.20;99.90;;;;;;2620539;46;20669;31
2022/04/12 00:10:55;;;;;;;;;;;2.10;99.90;;;;;;2603291;54;19939;31
2022/04/12 00:13:33;;;;;;;;;;;2.10;99.90;;;;;;2603090;54;19961;31
2022/04/12 00:16:08;;;;;;;;;;;2.10;99.90;;;;;;2603169;54;20686;31
2022/04/12 00:21:34;;;;;;;;;;;2.00;99.90;;;;;;2603273;54;20758;31
2022/04/12 00:24:09;;;;;;;;;;;2.00;99.90;;;;;;2603038;54;20045;31
2022/04/12 00:26:44;;;;;;;;;;;1.90;99.90;;;;;;2603066;54;19934;31
2022/04/12 00:29:21;;;;;;;;;;;2.20;99.90;;;;;;2603007;54;20782;31
2022/04/12 00:31:58;;;;;;;;;;;1.80;99.90;;;;;;2621607;46;19943;31
2022/04/12 00:34:35;;;;;;;;;;;1.80;99.90;;;;;;2603336;54;19946;31
2022/04/12 00:37:10;;;;;;;;;;;1.80;99.90;;;;;;2603341;54;19935;31
2022/04/12 00:39:45;;;;;;;;;;;1.80;99.90;;;;;;2602874;54;20776;31
2022/04/12 00:42:24;;;;;;;;;;;1.80;99.90;;;;;;2603051;54;19938;31
2022/04/12 00:45:02;;;;;;;;;;;1.70;99.90;;;;;;2602182;54;19941;31
2022/04/12 00:47:39;;;;;;;;;;;1.80;99.90;;;;;;2616355;46;20765;31
2022/04/12 00:50:15;;;;;;;;;;;1.80;99.90;;;;;;2602413;54;20671;31
2022/04/12 00:52:50;;;;;;;;;;;1.70;99.90;;;;;;2621574;46;21285;31
2022/04/12 00:55:27;;;;;;;;;;;1.70;99.90;;;;;;2701306;39;21248;31
2022/04/12 00:58:05;;;;;;;;;;;1.60;99.90;;;;;;2609474;46;19941;31
2022/04/12 01:00:42;;;;;;;;;;;1.60;99.90;;;;;;2602970;54;19938;31
2022/04/12 01:03:20;;;;;;;;;;;1.60;99.90;;;;;;2613733;46;20842;31
2022/04/12 01:05:55;;;;;;;;;;;1.50;99.90;;;;;;2602268;54;20763;31
2022/04/12 01:08:30;;;;;;;;;;;1.50;99.90;;;;;;2620813;46;20432;31
2022/04/12 01:11:07;;;;;;;;;;;1.50;99.90;;;;;;2621572;46;19961;31
2022/04/12 01:13:45;;;;;;;;;;;1.50;99.90;;;;;;2701324;39;21173;31
2022/04/12 01:16:20;;;;;;;;;;;1.50;99.90;;;;;;2603122;54;21259;31
2022/04/12 01:18:59;;;;;;;;;;;1.40;99.90;;;;;;2602855;54;19934;31
2022/04/12 01:21:35;;;;;;;;;;;1.40;99.90;;;;;;2621261;46;20494;31
2022/04/12 01:24:12;;;;;;;;;;;1.40;99.90;;;;;;2602334;54;20639;31
2022/04/12 01:26:49;;;;;;;;;;;1.30;99.90;;;;;;2602297;54;20756;31
2022/04/12 01:29:28;;;;;;;;;;;1.30;99.90;;;;;;2603197;54;20728;31
2022/04/12 01:32:07;;;;;;;;;;;1.20;99.90;;;;;;2602785;54;19934;31
2022/04/12 01:34:44;;;;;;;;;;;1.20;99.90;;;;;;2602848;54;19946;31
2022/04/12 01:37:20;;;;;;;;;;;1.20;99.90;;;;;;2700532;39;20417;31
2022/04/12 01:39:55;;;;;;;;;;;1.20;99.90;;;;;;2621574;47;19934;31
2022/04/12 01:42:32;;;;;;;;;;;1.20;99.90;;;;;;2602990;54;19956;31
2022/04/12 01:45:12;;;;;;;;;;;1.10;99.90;;;;;;2603138;54;21276;31
2022/04/12 01:47:46;;;;;;;;;;;1.10;99.90;;;;;;2621519;47;19935;31
2022/04/12 01:50:21;;;;;;;;;;;1.10;99.90;;;;;;2621237;47;20489;31
2022/04/12 01:52:58;;;;;;;;;;;1.10;99.90;;;;;;2602311;54;20661;31
2022/04/12 01:55:36;;;;;;;;;;;1.10;99.90;;;;;;2621462;47;20004;31
2022/04/12 01:58:13;;;;;;;;;;;1.10;99.90;;;;;;2621376;47;20653;31
2022/04/12 02:00:57;;;;;;;;;;;1.10;99.90;;;;;;2617609;47;20802;31
2022/04/12 02:03:34;;;;;;;;;;;1.00;99.90;;;;;;2602929;54;20760;31
2022/04/12 02:06:09;;;;;;;;;;;1.00;99.90;;;;;;2621078;47;19996;31
2022/04/12 02:08:44;;;;;;;;;;;1.00;99.90;;;;;;2602855;54;20768;31
2022/04/12 02:11:19;;;;;;;;;;;0.90;99.90;;;;;;2622149;46;19943;31
2022/04/12 02:13:55;;;;;;;;;;;0.90;99.90;;;;;;2602908;54;20678;31
2022/04/12 02:16:33;;;;;;;;;;;0.90;99.90;;;;;;2602806;54;19942;31
2022/04/12 02:19:10;;;;;;;;;;;0.90;99.90;;;;;;2602743;54;20483;31
2022/04/12 02:21:45;;;;;;;;;;;0.90;99.90;;;;;;2772887;31;20472;31
2022/04/12 02:24:20;;;;;;;;;;;0.90;99.90;;;;;;2791226;31;20553;31
2022/04/12 02:26:56;;;;;;;;;;;0.80;99.90;;;;;;2603633;54;19942;31
2022/04/12 02:29:34;;;;;;;;;;;0.80;99.90;;;;;;2622031;46;19957;31
2022/04/12 02:32:12;;;;;;;;;;;0.80;99.90;;;;;;2603556;54;19947;31
2022/04/12 02:34:47;;;;;;;;;;;0.80;99.90;;;;;;2622277;46;19945;31
2022/04/12 02:37:22;;;;;;;;;;;0.70;99.90;;;;;;2603381;54;20709;31
2022/04/12 02:39:57;;;;;;;;;;;0.70;99.90;;;;;;2621793;46;20485;31
2022/04/12 02:42:32;;;;;;;;;;;0.70;99.90;;;;;;2603560;54;20628;31
2022/04/12 02:45:08;;;;;;;;;;;0.70;99.90;;;;;;2622187;46;19935;31
2022/04/12 02:47:48;;;;;;;;;;;0.70;99.90;;;;;;2603410;54;20796;31
2022/04/12 02:50:23;;;;;;;;;;;0.70;99.90;;;;;;2603464;54;19981;31
2022/04/12 02:53:01;;;;;;;;;;;0.60;99.90;;;;;;2622014;46;19941;31
2022/04/12 02:55:36;;;;;;;;;;;0.60;99.90;;;;;;2621980;46;20698;31
2022/04/12 02:58:11;;;;;;;;;;;0.60;99.90;;;;;;2622180;46;20768;31
2022/04/12 03:00:46;;;;;;;;;;;0.60;99.90;;;;;;2603490;54;20493;31
2022/04/12 03:03:24;;;;;;;;;;;0.50;99.90;;;;;;2603568;54;20752;31
2022/04/12 03:06:01;;;;;;;;;;;0.50;99.90;;;;;;2603348;54;20499;31
2022/04/12 03:08:36;;;;;;;;;;;0.50;99.90;;;;;;2603460;54;20767;31
2022/04/12 03:11:11;;;;;;;;;;;0.50;99.90;;;;;;2603069;54;19941;31
2022/04/12 03:13:49;;;;;;;;;;;0.50;99.90;;;;;;2622244;46;20757;31
2022/04/12 03:16:25;;;;;;;;;;;0.40;99.90;;;;;;2617816;46;20493;31
2022/04/12 03:19:02;;;;;;;;;;;0.40;99.90;;;;;;2602927;54;19942;31
2022/04/12 03:21:42;;;;;;;;;;;0.40;99.90;;;;;;2603267;54;19934;31
2022/04/12 03:24:22;;;;;;;;;;;0.40;99.90;;;;;;2622039;46;19942;31
2022/04/12 03:26:59;;;;;;;;;;;0.40;99.90;;;;;;2621568;46;19934;31
2022/04/12 03:29:36;;;;;;;;;;;0.40;99.90;;;;;;2602683;54;20777;31
2022/04/12 03:32:14;;;;;;;;;;;0.40;99.90;;;;;;2621080;46;20740;31
2022/04/12 03:34:53;;;;;;;;;;;0.40;99.90;;;;;;2603475;54;19934;31
2022/04/12 03:37:30;;;;;;;;;;;0.40;99.90;;;;;;2603292;54;20753;31
2022/04/12 03:40:08;;;;;;;;;;;0.40;99.90;;;;;;2603283;54;20014;31
2022/04/12 03:42:44;;;;;;;;;;;0.30;99.90;;;;;;2621948;46;20753;31
2022/04/12 03:45:20;;;;;;;;;;;0.30;99.90;;;;;;2621861;46;20743;31
2022/04/12 03:47:57;;;;;;;;;;;0.30;99.90;;;;;;2603392;54;20767;31
2022/04/12 03:53:47;;;;;;;;;;;0.30;99.90;;;;;;2621926;46;20012;31
2022/04/12 03:56:34;;;;;;;;;;;0.30;99.90;;;;;;2603192;54;19935;31
2022/04/12 03:59:11;;;;;;;;;;;0.30;99.90;;;;;;2603163;54;20853;31
2022/04/12 04:01:49;;;;;;;;;;;0.20;99.90;;;;;;2603142;54;19934;31
2022/04/12 04:04:26;;;;;;;;;;;0.20;99.90;;;;;;2603151;54;20775;31
2022/04/12 04:07:01;;;;;;;;;;;0.20;99.90;;;;;;2621676;46;19942;31
2022/04/12 04:09:37;;;;;;;;;;;0.20;99.90;;;;;;2603229;54;19943;31
2022/04/12 04:12:16;;;;;;;;;;;0.20;99.90;;;;;;2603353;54;20729;31
2022/04/12 04:14:51;;;;;;;;;;;0.20;99.90;;;;;;2621711;46;21286;31
2022/04/12 04:17:26;;;;;;;;;;;0.20;99.90;;;;;;2603111;54;19935;31
2022/04/12 04:20:01;;;;;;;;;;;0.20;99.90;;;;;;2603147;54;20022;31
2022/04/12 04:22:35;;;;;;;;;;;0.20;99.90;;;;;;2621681;46;19950;31
2022/04/12 04:25:11;;;;;;;;;;;0.30;99.90;;;;;;2603090;54;19943;31
2022/04/12 04:27:49;;;;;;;;;;;0.30;99.90;;;;;;2602289;54;19947;31
2022/04/12 04:30:28;;;;;;;;;;;0.30;99.90;;;;;;2719811;39;20369;31
2022/04/12 04:33:04;;;;;;;;;;;0.30;99.90;;;;;;2602838;54;19939;31
2022/04/12 04:35:39;;;;;;;;;;;0.40;99.90;;;;;;2617828;46;20754;31
2022/04/12 04:38:14;;;;;;;;;;;0.40;99.90;;;;;;2603335;54;19934;31
2022/04/12 04:40:52;;;;;;;;;;;0.50;99.90;;;;;;2603251;54;20746;31
2022/04/12 04:43:27;;;;;;;;;;;0.60;99.90;;;;;;2621424;46;19935;31
2022/04/12 04:46:08;;;;;;;;;;;0.70;99.90;;;;;;2621599;46;20877;31
2022/04/12 04:48:42;;;;;;;;;;;0.80;99.90;;;;;;2603055;54;20774;31
2022/04/12 04:51:17;;;;;;;;;;;1.00;99.90;;;;;;2602825;54;20514;31
2022/04/12 04:53:58;;;;;;;;;;;1.00;99.90;;;;;;2621631;46;19934;31
2022/04/12 04:56:35;;;;;;;;;;;1.20;99.90;;;;;;2602898;54;21471;31
2022/04/12 04:59:10;;;;;;;;;;;1.30;99.90;;;;;;2621415;46;19934;31
2022/04/12 05:01:47;;;;;;;;;;;1.50;99.90;;;;;;2603167;54;19941;31
2022/04/12 05:04:22;;;;;;;;;;;1.70;99.90;;;;;;2621599;46;19938;31
2022/04/12 05:06:58;;;;;;;;;;;1.80;99.90;;;;;;2602966;54;19934;31
2022/04/12 05:09:36;;;;;;;;;;;1.90;99.90;;;;;;2621641;46;20756;31
2022/04/12 05:12:14;;;;;;;;;;;2.00;99.90;;;;;;2701375;39;20413;31
2022/04/12 05:14:49;;;;;;;;;;;2.10;99.90;;;;;;2602877;54;19941;31
2022/04/12 05:17:30;;;;;;;;;;;2.20;99.90;;;;;;2621341;46;20013;31
2022/04/12 05:20:05;;;;;;;;;;;2.30;99.90;;;;;;2621437;46;20027;31
2022/04/12 05:22:40;;;;;;;;;;;2.40;99.90;;;;;;2603080;54;20768;31
2022/04/12 05:25:15;;;;;;;;;;;2.50;99.90;;;;;;2602937;54;21396;31
2022/04/12 05:27:49;;;;;;;;;;;2.70;99.90;;;;;;2602115;54;19935;31
2022/04/12 05:30:24;;;;;;;;;;;2.80;99.90;;;;;;2621497;46;20064;31
2022/04/12 05:33:02;;;;;;;;;;;3.10;99.90;;;;;;2602796;54;19934;31
2022/04/12 05:35:40;;;;;;;;;;;3.30;99.90;;;;;;2602833;54;20756;31
2022/04/12 05:38:15;;;;;;;;;;;3.40;99.90;;;;;;2602823;54;19935;31
2022/04/12 05:40:52;;;;;;;;;;;3.50;99.90;;;;;;2602795;54;19935;31
2022/04/12 05:43:28;;;;;;;;;;;3.70;99.90;;;;;;2621347;47;20811;31
2022/04/12 05:46:03;;;;;;;;;;;4.00;99.90;;;;;;2617752;46;19997;31
2022/04/12 05:48:43;;;;;;;;;;;4.20;99.90;;;;;;2622383;46;20659;31
2022/04/12 05:51:19;;;;;;;;;;;4.50;99.90;;;;;;2603708;54;19934;31
2022/04/12 05:53:54;;;;;;;;;;;4.80;99.90;;;;;;2603561;54;21039;31
2022/04/12 05:56:28;;;;;;;;;;;5.00;99.90;;;;;;2622276;46;19939;31
2022/04/12 05:59:03;;;;;;;;;;;5.30;99.90;;;;;;2622225;46;19938;31
2022/04/12 06:01:38;;;;;;;;;;;5.60;99.90;;;;;;2603477;54;19941;31
2022/04/12 06:04:16;;;;;;;;;;;6.00;99.90;;;;;;2602993;54;20787;31
2022/04/12 06:06:51;;;;;;;;;;;6.20;99.90;;;;;;2603460;54;19935;31
2022/04/12 06:09:26;;;;;;;;;;;6.40;99.90;;;;;;2603607;54;20668;31
2022/04/12 06:12:01;;;;;;;;;;;6.60;99.90;;;;;;2621550;46;20482;31
2022/04/12 06:14:36;;;;;;;;;;;6.70;99.90;;;;;;2622389;46;20791;31
2022/04/12 06:17:13;;;;;;;;;;;6.90;99.90;;;;;;2602812;54;19942;31
2022/04/12 06:20:01;;;;;;;;;;;7.10;99.90;;;;;;2621962;46;19934;31
2022/04/12 06:22:35;;;;;;;;;;;7.40;99.90;;;;;;2603434;54;20651;31
2022/04/12 06:25:10;;;;;;;;;;;7.70;99.90;;;;;;2621708;46;20681;31
2022/04/12 06:27:46;;;;;;;;;;;8.10;99.90;;;;;;2621923;46;19942;31
2022/04/12 06:30:21;;;;;;;;;;;8.30;99.90;;;;;;2621779;46;20711;31
2022/04/12 06:32:56;;;;;;;;;;;8.60;99.90;;;;;;2621722;46;19934;31
2022/04/12 06:35:36;;;;;;;;;;;8.80;99.90;;;;;;2621830;46;19993;31
2022/04/12 06:38:12;;;;;;;;;;;9.10;99.90;;;;;;2603346;54;19935;31
2022/04/12 06:40:49;;;;;;;;;;;9.40;99.90;;;;;;2620341;46;20825;31
2022/04/12 06:43:23;;;;;;;;;;;9.70;99.90;;;;;;2603439;54;19938;31
2022/04/12 06:45:58;;;;;;;;;;;10.00;99.90;;;;;;2603392;54;20647;31
2022/04/12 06:48:35;;;;;;;;;;;10.30;99.90;;;;;;2603409;54;19934;31
2022/04/12 06:51:12;;;;;;;;;;;10.70;99.90;;;;;;2621604;46;19941;31
2022/04/12 06:53:50;;;;;;;;;;;11.00;99.90;;;;;;2603255;54;19981;31
2022/04/12 06:56:28;;;;;;;;;;;11.10;99.90;;;;;;2621658;46;19990;31
2022/04/12 06:59:03;;;;;;;;;;;11.50;99.90;;;;;;2621903;46;19989;31
2022/04/12 07:01:38;;;;;;;;;;;11.60;99.90;;;;;;2603281;54;20782;31
2022/04/12 07:04:11;;;;;;;;;;;11.90;99.90;;;;;;2603157;54;19935;31
2022/04/12 07:06:48;;;;;;;;;;;12.20;99.90;;;;;;2603284;54;21154;31
2022/04/12 07:09:27;;;;;;;;;;;12.50;99.90;;;;;;2603379;54;20667;31
2022/04/12 07:12:04;;;;;;;;;;;12.60;99.90;;;;;;2603249;54;19942;31
2022/04/12 07:14:40;;;;;;;;;;;12.80;99.90;;;;;;2603402;54;20768;31
2022/04/12 07:17:14;;;;;;;;;;;12.90;99.90;;;;;;2621302;46;21758;31
2022/04/12 07:19:59;;;;;;;;;;;13.10;99.90;;;;;;2603208;54;19935;31
2022/04/12 07:22:36;;;;;;;;;;;13.40;99.90;;;;;;2603436;54;20770;31
2022/04/12 07:25:11;;;;;;;;;;;13.50;99.90;;;;;;2603204;54;20703;31
2022/04/12 07:27:49;;;;;;;;;;;13.60;99.90;;;;;;2602985;54;20761;31
2022/04/12 07:30:25;;;;;;;;;;;13.80;99.90;;;;;;2701703;39;21250;31
2022/04/12 07:33:21;;;;;;;;;;;13.90;99.90;;;;;;2603315;54;19976;31
2022/04/12 07:35:54;;;;;;;;;;;14.10;99.90;;;;;;2603259;54;19961;31
2022/04/12 07:38:29;;;;;;;;;;;14.20;99.90;;;;;;2621791;46;20760;31
2022/04/12 07:41:06;;;;;;;;;;;14.30;99.90;;;;;;2602580;54;21303;31
2022/04/12 07:43:45;;;;;;;;;;;14.50;99.90;;;;;;2603257;54;19934;31
2022/04/12 07:46:23;;;;;;;;;;;14.60;98.90;;;;;;2602625;54;19972;31
2022/04/12 07:48:58;;;;;;;;;;;14.60;97.70;;;;;;2621775;46;20809;31
2022/04/12 07:51:32;;;;;;;;;;;14.60;97.30;;;;;;2603340;54;20635;31
2022/04/12 07:54:10;;;;;;;;;;;14.60;96.10;;;;;;2603240;54;20670;31
2022/04/12 07:56:45;;;;;;;;;;;14.70;95.80;;;;;;2603285;54;19935;31
2022/04/12 07:59:19;;;;;;;;;;;14.70;95.50;;;;;;2622052;46;20655;31
2022/04/12 08:01:57;;;;;;;;;;;14.70;95.70;;;;;;2603407;54;19934;31
2022/04/12 08:04:34;;;;;;;;;;;15.00;95.00;;;;;;2621804;46;19977;31
2022/04/12 08:07:09;;;;;;;;;;;15.20;93.50;;;;;;2602440;54;19993;31
2022/04/12 08:09:44;;;;;;;;;;;15.20;92.50;;;;;;2621521;46;19934;31
2022/04/12 08:12:19;;;;;;;;;;;15.10;92.00;;;;;;2603103;54;19946;31
2022/04/12 08:14:54;;;;;;;;;;;15.10;91.40;;;;;;2621789;46;19934;31
2022/04/12 08:17:32;;;;;;;;;;;15.10;91.00;;;;;;2602924;54;19938;31
2022/04/12 08:20:09;;;;;;;;;;;15.10;91.20;;;;;;2612697;46;20659;31
2022/04/12 08:22:46;;;;;;;;;;;15.10;90.90;;;;;;2618300;46;19942;31
2022/04/12 08:25:25;;;;;;;;;;;15.10;90.80;;;;;;2603092;54;19935;31
2022/04/12 08:28:00;;;;;;;;;;;15.10;90.10;;;;;;2621688;46;19935;31
2022/04/12 08:30:35;;;;;;;;;;;15.20;89.60;;;;;;2603155;54;19981;31
2022/04/12 08:33:13;;;;;;;;;;;15.10;88.20;;;;;;2701758;39;20417;31
2022/04/12 08:35:49;;;;;;;;;;;15.10;86.30;;;;;;2603345;54;20010;31
2022/04/12 08:38:24;;;;;;;;;;;15.20;87.40;;;;;;2602998;54;19942;31
2022/04/12 08:40:59;;;;;;;;;;;15.40;86.60;;;;;;2720310;39;21282;31
2022/04/12 08:43:33;;;;;;;;;;;15.50;85.10;;;;;;2603141;54;20017;31
2022/04/12 08:46:10;;;;;;;;;;;15.70;85.00;;;;;;2603277;54;20802;31
2022/04/12 08:48:51;;;;;;;;;;;15.70;86.00;;;;;;2603163;54;20739;31
2022/04/12 08:51:30;;;;;;;;;;;16.00;85.10;;;;;;2603310;54;20741;31
2022/04/12 08:54:05;;;;;;;;;;;16.30;83.50;;;;;;2602304;54;20685;31
2022/04/12 08:56:40;;;;;;;;;;;16.20;81.20;;;;;;2602458;54;20041;31
2022/04/12 08:59:14;;;;;;;;;;;16.20;82.40;;;;;;2620990;46;19941;31
2022/04/12 09:01:50;;;;;;;;;;;16.40;83.60;;;;;;2700474;39;20425;31
2022/04/12 09:04:29;;;;;;;;;;;16.50;81.20;;;;;;2618885;46;19946;31
2022/04/12 09:07:06;;;;;;;;;;;16.50;78.80;;;;;;2609240;46;19942;31
2022/04/12 09:09:41;;;;;;;;;;;16.40;78.50;;;;;;2602316;54;20774;31
2022/04/12 09:12:17;;;;;;;;;;;16.50;77.50;;;;;;2619839;46;19934;31
2022/04/12 09:14:56;;;;;;;;;;;16.80;78.40;;;;;;2602098;54;19948;31
2022/04/12 09:17:31;;;;;;;;;;;16.70;78.00;;;;;;2621601;46;20748;31
2022/04/12 09:20:13;;;;;;;;;;;16.80;78.70;;;;;;2720273;39;20320;31
2022/04/12 09:22:47;;;;;;;;;;;16.90;77.20;;;;;;2602910;54;19977;31
2022/04/12 09:25:22;;;;;;;;;;;17.00;77.20;;;;;;2602246;54;19950;31
2022/04/12 09:27:57;;;;;;;;;;;16.90;75.80;;;;;;2602432;54;20025;31
2022/04/12 09:30:34;;;;;;;;;;;17.00;76.20;;;;;;2718342;39;20312;31
2022/04/12 09:33:10;;;;;;;;;;;17.00;74.10;;;;;;2621730;46;19934;31
2022/04/12 09:35:48;;;;;;;;;;;17.20;75.50;;;;;;2602850;54;19961;31
2022/04/12 09:38:25;;;;;;;;;;;17.40;78.00;;;;;;2621271;46;20705;31
2022/04/12 09:41:12;;;;;;;;;;;17.40;75.20;;;;;;2602913;54;20752;31
2022/04/12 09:43:54;;;;;;;;;;;17.70;75.10;;;;;;2621646;47;20751;31
2022/04/12 09:46:29;;;;;;;;;;;17.70;74.70;;;;;;2621243;47;19942;31
2022/04/12 09:49:06;;;;;;;;;;;17.50;73.60;;;;;;2602768;54;19934;31
2022/04/12 09:51:44;;;;;;;;;;;17.30;74.70;;;;;;2603205;54;19957;31
2022/04/12 09:54:22;;;;;;;;;;;17.20;75.10;;;;;;2603099;54;20779;31
2022/04/12 09:57:03;;;;;;;;;;;17.40;74.60;;;;;;2603121;54;20735;31
2022/04/12 09:59:54;;;;;;;;;;;17.60;74.50;;;;;;2602974;54;19938;31
2022/04/12 10:02:31;;;;;;;;;;;17.60;73.10;;;;;;2621567;47;20022;31
2022/04/12 10:05:09;;;;;;;;;;;17.80;73.90;;;;;;2621557;47;19960;31
2022/04/12 10:07:47;;;;;;;;;;;18.10;71.70;;;;;;2603162;54;19939;31
2022/04/12 10:10:23;;;;;;;;;;;18.30;72.60;;;;;;2621572;47;19943;31
2022/04/12 10:12:59;;;;;;;;;;;18.20;71.30;;;;;;2603031;54;19935;31
2022/04/12 10:15:36;;;;;;;;;;;18.10;73.70;;;;;;2603019;54;19957;31
2022/04/12 10:18:15;;;;;;;;;;;18.10;72.20;;;;;;2719663;39;20421;31
2022/04/12 10:20:51;;;;;;;;;;;18.10;72.30;;;;;;2621450;47;19962;31
2022/04/12 10:23:30;;;;;;;;;;;18.10;72.00;;;;;;2772676;31;20452;31
2022/04/12 10:26:05;;;;;;;;;;;18.10;70.90;;;;;;2602783;54;19935;31
2022/04/12 10:28:44;;;;;;;;;;;17.80;71.30;;;;;;2621296;47;19950;31
2022/04/12 10:31:25;;;;;;;;;;;17.70;70.70;;;;;;2603721;54;20739;31
2022/04/12 10:37:09;;;;;;;;;;;17.30;70.10;;;;;;2603596;54;19968;31
2022/04/12 10:40:15;;;;;;;;;;;17.40;71.30;;;;;;2603709;54;19962;31
2022/04/12 10:43:00;;;;;;;;;;;17.60;73.20;;;;;;2603616;54;20699;31
2022/04/12 10:45:37;;;;;;;;;;;17.80;70.50;;;;;;2603616;54;19941;31
2022/04/12 10:48:13;;;;;;;;;;;17.90;70.60;;;;;;2772875;31;20496;31
2022/04/12 10:50:50;;;;;;;;;;;18.10;70.00;;;;;;2603558;54;20783;31
2022/04/12 10:53:40;;;;;;;;;;;18.20;72.80;;;;;;2603631;54;20725;31
2022/04/12 10:56:20;;;;;;;;;;;18.30;70.90;;;;;;2603300;54;20740;31
2022/04/12 10:58:54;;;;;;;;;;;18.50;68.30;;;;;;2602727;54;20803;31
2022/04/12 11:01:43;;;;;;;;;;;18.60;67.90;;;;;;2603724;54;19942;31
2022/04/12 11:04:20;;;;;;;;;;;18.60;68.50;;;;;;2621967;46;20803;31
2022/04/12 11:06:59;;;;;;;;;;;18.60;68.80;;;;;;2621929;46;20010;31
2022/04/12 11:09:34;;;;;;;;;;;18.60;67.50;;;;;;2720774;39;20390;31
2022/04/12 11:12:12;;;;;;;;;;;18.50;69.00;;;;;;2621632;46;19980;31
2022/04/12 11:14:47;;;;;;;;;;;18.40;66.90;;;;;;2602879;54;19997;31
2022/04/12 11:17:29;;;;;;;;;;;18.30;67.10;;;;;;2621237;46;20103;31
2022/04/12 11:20:08;;;;;;;;;;;18.00;68.20;;;;;;2603397;54;19935;31
2022/04/12 11:22:45;;;;;;;;;;;17.90;67.80;;;;;;2603358;54;19956;31
2022/04/12 11:25:22;;;;;;;;;;;17.70;67.20;;;;;;2602656;54;20647;31
2022/04/12 11:28:01;;;;;;;;;;;17.80;69.30;;;;;;2603428;54;20807;31
2022/04/12 11:30:37;;;;;;;;;;;17.70;67.50;;;;;;2622012;46;20774;31
2022/04/12 11:33:14;;;;;;;;;;;17.70;67.50;;;;;;2603453;54;20810;31
2022/04/12 11:35:49;;;;;;;;;;;17.70;67.70;;;;;;2603155;54;19961;31
2022/04/12 11:38:31;;;;;;;;;;;17.80;67.80;;;;;;2621679;46;20815;31
2022/04/12 11:41:06;;;;;;;;;;;17.70;67.50;;;;;;2603407;54;19935;31
2022/04/12 11:43:44;;;;;;;;;;;17.70;69.90;;;;;;2603223;54;20833;31
2022/04/12 11:46:23;;;;;;;;;;;17.70;67.50;;;;;;2603642;54;20473;31
2022/04/12 11:49:09;;;;;;;;;;;17.60;69.10;;;;;;2603315;54;19935;31
2022/04/12 11:51:50;;;;;;;;;;;17.30;67.50;;;;;;2603520;54;20715;31
2022/04/12 11:54:26;;;;;;;;;;;17.10;68.60;;;;;;2603046;54;19935;31
2022/04/12 11:57:02;;;;;;;;;;;17.00;68.50;;;;;;2621828;46;20809;31
2022/04/12 11:59:37;;;;;;;;;;;17.00;68.70;;;;;;2621651;46;20733;31
2022/04/12 12:02:12;;;;;;;;;;;17.10;68.50;;;;;;2603297;54;19950;31
2022/04/12 12:04:57;;;;;;;;;;;17.00;67.20;;;;;;2603232;54;20799;31
2022/04/12 12:07:43;;;;;;;;;;;17.00;66.50;;;;;;2621710;46;19935;31
2022/04/12 12:10:27;;;;;;;;;;;16.90;67.60;;;;;;2621917;46;20543;31
2022/04/12 12:13:20;;;;;;;;;;;16.90;69.10;;;;;;2621848;46;20563;31
2022/04/12 12:15:55;;;;;;;;;;;16.80;69.10;;;;;;2603283;54;20488;31
2022/04/12 12:18:30;;;;;;;;;;;16.80;69.10;;;;;;2603095;54;19946;31
2022/04/12 12:21:05;;;;;;;;;;;16.80;67.50;;;;;;2621856;46;20782;31
2022/04/12 12:23:42;;;;;;;;;;;16.80;70.80;;;;;;2616219;46;19946;31
2022/04/12 12:26:32;;;;;;;;;;;16.90;69.70;;;;;;2602455;54;20684;31
2022/04/12 12:29:10;;;;;;;;;;;16.90;69.50;;;;;;2603283;54;19934;31
2022/04/12 12:31:45;;;;;;;;;;;17.00;69.70;;;;;;2621831;46;20782;31
2022/04/12 12:34:29;;;;;;;;;;;17.00;68.10;;;;;;2603471;54;20792;31
2022/04/12 12:37:08;;;;;;;;;;;17.00;69.00;;;;;;2621802;46;20753;31
2022/04/12 12:39:48;;;;;;;;;;;16.90;69.40;;;;;;2621575;46;19942;31
2022/04/12 12:42:27;;;;;;;;;;;16.80;68.80;;;;;;2621519;46;20748;31
2022/04/12 12:45:04;;;;;;;;;;;16.70;68.20;;;;;;2603460;54;19938;31
2022/04/12 12:47:39;;;;;;;;;;;16.60;68.00;;;;;;2603171;54;19935;31
2022/04/12 12:50:16;;;;;;;;;;;16.40;68.40;;;;;;2621852;46;20003;31
2022/04/12 12:52:50;;;;;;;;;;;16.30;68.50;;;;;;2603085;54;22412;31
2022/04/12 12:55:26;;;;;;;;;;;16.20;68.20;;;;;;2603127;54;20580;31
2022/04/12 12:58:08;;;;;;;;;;;16.10;69.10;;;;;;2603033;54;19942;31
2022/04/12 13:00:44;;;;;;;;;;;16.20;69.60;;;;;;2621684;46;20006;31
2022/04/12 13:03:25;;;;;;;;;;;16.20;69.00;;;;;;2603502;54;19942;31
2022/04/12 13:06:00;;;;;;;;;;;16.20;68.20;;;;;;2603235;54;19946;31
2022/04/12 13:08:35;;;;;;;;;;;16.20;67.30;;;;;;2603062;54;19940;31
2022/04/12 13:11:15;;;;;;;;;;;16.10;67.60;;;;;;2602835;54;20821;31
2022/04/12 13:13:59;;;;;;;;;;;16.10;69.00;;;;;;2773240;31;20458;31
2022/04/12 13:16:34;;;;;;;;;;;16.20;67.40;;;;;;2602966;54;20814;31
2022/04/12 13:19:11;;;;;;;;;;;16.20;66.00;;;;;;2603108;54;20107;31
2022/04/12 13:21:47;;;;;;;;;;;16.20;67.30;;;;;;2602525;54;19942;31
2022/04/12 13:24:24;;;;;;;;;;;16.20;67.30;;;;;;2603024;54;20022;31
2022/04/12 13:26:59;;;;;;;;;;;16.10;68.60;;;;;;2621588;46;20034;31
2022/04/12 13:29:35;;;;;;;;;;;16.00;68.20;;;;;;2602235;54;20667;31
2022/04/12 13:32:14;;;;;;;;;;;16.00;67.70;;;;;;2602877;54;19955;31
2022/04/12 13:34:52;;;;;;;;;;;15.90;68.10;;;;;;2602899;54;19946;31
2022/04/12 13:37:27;;;;;;;;;;;15.90;68.80;;;;;;2603117;54;20002;31
2022/04/12 13:40:02;;;;;;;;;;;15.90;67.10;;;;;;2620064;46;21117;31
2022/04/12 13:42:37;;;;;;;;;;;15.80;66.00;;;;;;2621426;46;20725;31
2022/04/12 13:45:14;;;;;;;;;;;15.80;67.50;;;;;;2602896;54;19934;31
2022/04/12 13:47:50;;;;;;;;;;;15.70;66.80;;;;;;2602880;54;20659;31
2022/04/12 13:50:28;;;;;;;;;;;15.70;67.30;;;;;;2603110;54;19941;31
2022/04/12 13:53:07;;;;;;;;;;;15.70;67.90;;;;;;2602718;54;20504;31
2022/04/12 13:55:44;;;;;;;;;;;15.70;67.90;;;;;;2603119;54;19934;31
2022/04/12 13:58:22;;;;;;;;;;;15.60;66.60;;;;;;2602832;54;19957;31
2022/04/12 14:01:00;;;;;;;;;;;15.70;67.50;;;;;;2602731;54;20017;31
2022/04/12 14:03:35;;;;;;;;;;;15.70;68.50;;;;;;2602709;54;19941;31
2022/04/12 14:06:10;;;;;;;;;;;15.60;68.30;;;;;;2621816;46;19946;31
2022/04/12 14:08:46;;;;;;;;;;;15.70;68.80;;;;;;2603878;54;19935;31
2022/04/12 14:11:23;;;;;;;;;;;15.60;67.70;;;;;;2603584;54;20803;31
2022/04/12 14:14:02;;;;;;;;;;;15.70;68.10;;;;;;2603736;54;20750;31
2022/04/12 14:16:37;;;;;;;;;;;15.70;68.40;;;;;;2622079;46;19934;31
2022/04/12 14:19:20;;;;;;;;;;;15.70;69.00;;;;;;2622349;46;19942;31
2022/04/12 14:21:56;;;;;;;;;;;15.60;68.70;;;;;;2603684;54;20492;31
2022/04/12 14:24:31;;;;;;;;;;;15.60;68.70;;;;;;2603530;54;19942;31
2022/04/12 14:27:10;;;;;;;;;;;15.50;68.60;;;;;;2603639;54;20008;31
2022/04/12 14:29:51;;;;;;;;;;;15.60;68.40;;;;;;2603404;54;19935;31
2022/04/12 14:32:26;;;;;;;;;;;15.50;66.80;;;;;;2604019;54;19957;31
2022/04/12 14:35:01;;;;;;;;;;;15.50;67.10;;;;;;2603424;54;19939;31
2022/04/12 14:37:36;;;;;;;;;;;15.40;68.10;;;;;;2603830;54;20729;31
2022/04/12 14:40:12;;;;;;;;;;;15.40;68.10;;;;;;2603578;54;19957;31
2022/04/12 14:45:29;;;;;;;;;;;15.40;69.00;;;;;;2622231;46;19941;31
2022/04/12 14:48:04;;;;;;;;;;;15.40;68.80;;;;;;2603304;54;19935;31
2022/04/12 14:50:40;;;;;;;;;;;15.40;69.00;;;;;;2622208;46;19939;31
2022/04/12 14:53:18;;;;;;;;;;;15.30;68.70;;;;;;2622155;46;20119;31
2022/04/12 14:55:57;;;;;;;;;;;15.30;69.00;;;;;;2602620;54;19951;31
2022/04/12 14:58:33;;;;;;;;;;;15.30;70.00;;;;;;2602649;54;19949;31
2022/04/12 15:01:11;;;;;;;;;;;15.30;70.10;;;;;;2621794;46;19989;31
2022/04/12 15:03:49;;;;;;;;;;;15.30;69.70;;;;;;2613577;46;19957;31
2022/04/12 15:06:26;;;;;;;;;;;15.30;69.80;;;;;;2603664;54;20729;31
2022/04/12 15:09:08;;;;;;;;;;;15.30;70.20;;;;;;2621774;46;20650;31
2022/04/12 15:11:44;;;;;;;;;;;15.30;70.10;;;;;;2622041;46;20873;31
2022/04/12 15:14:20;;;;;;;;;;;15.30;69.50;;;;;;2603469;54;20789;31
2022/04/12 15:16:55;;;;;;;;;;;15.20;71.40;;;;;;2603320;54;20061;31
2022/04/12 15:19:34;;;;;;;;;;;15.20;72.30;;;;;;2621917;46;19934;31
2022/04/12 15:22:12;;;;;;;;;;;15.20;72.20;;;;;;2603355;54;19935;31
2022/04/12 15:24:47;;;;;;;;;;;15.30;72.00;;;;;;2603328;54;19942;31
2022/04/12 15:27:22;;;;;;;;;;;15.20;71.50;;;;;;2622115;46;20729;31
2022/04/12 15:29:57;;;;;;;;;;;15.20;72.40;;;;;;2603313;54;19935;31
2022/04/12 15:32:32;;;;;;;;;;;15.20;72.20;;;;;;2621736;46;19935;31
2022/04/12 15:35:12;;;;;;;;;;;15.20;71.80;;;;;;2603528;54;20715;31
2022/04/12 15:41:03;;;;;;;;;;;15.10;71.50;;;;;;2603344;54;19934;31
2022/04/12 15:46:53;;;;;;;;;;;15.10;72.70;;;;;;2603306;54;19938;31
2022/04/12 15:49:28;;;;;;;;;;;15.00;73.10;;;;;;2603371;54;19935;31
2022/04/12 15:52:04;;;;;;;;;;;15.00;72.80;;;;;;2603271;54;22370;31